Time;durP1;ratioP1;P1;durP2;ratioP2;P2;SDS_P1;SDS_P2;PMS_P1;PMS_P2;Temp;Humidity;BMP_temperature;BMP_pressure;BME280_temperature;BME280_humidity;BME280_pressure;Samples;Min_cycle;Max_cycle;Signal;HPM_P1;HPM_P2
2023/04/11 00:00:11;;;;;;;6.15;1.40;;;;;;;15.08;58.61;100677.63;4940497;29;20066;-74
2023/04/11 00:02:39;;;;;;;6.50;1.43;;;;;;;15.04;58.37;100681.19;4940531;29;20059;-74
2023/04/11 00:05:05;;;;;;;4.50;1.40;;;;;;;15.05;58.42;100685.59;4946321;29;20043;-74
2023/04/11 00:07:31;;;;;;;6.18;1.30;;;;;;;15.07;58.09;100681.16;4959636;28;20031;-74
2023/04/11 00:09:56;;;;;;;4.80;1.33;;;;;;;15.01;58.81;100679.50;4954552;28;20055;-74
2023/04/11 00:12:22;;;;;;;6.80;2.07;;;;;;;14.95;58.83;100682.25;4957453;28;20023;-74
2023/04/11 00:14:47;;;;;;;9.32;1.50;;;;;;;14.89;58.90;100683.22;4959366;28;20027;-74
2023/04/11 00:17:14;;;;;;;6.97;1.50;;;;;;;14.87;58.94;100679.72;4959668;28;20490;-74
2023/04/11 00:19:42;;;;;;;6.25;1.58;;;;;;;14.89;58.74;100680.56;4957584;28;20027;-74
2023/04/11 00:22:08;;;;;;;5.60;1.73;;;;;;;14.91;58.59;100684.06;4940245;29;20118;-74
2023/04/11 00:24:33;;;;;;;5.97;1.33;;;;;;;14.89;58.70;100685.84;4938384;29;20024;-74
2023/04/11 00:27:00;;;;;;;5.15;1.42;;;;;;;14.83;59.16;100683.31;4939071;29;20027;-74
2023/04/11 00:29:25;;;;;;;6.40;1.57;;;;;;;14.75;59.39;100670.16;4955326;29;20466;-74
2023/04/11 00:31:54;;;;;;;6.20;1.48;;;;;;;14.69;59.20;100679.94;4959239;28;20193;-74
2023/04/11 00:34:20;;;;;;;5.40;1.60;;;;;;;14.70;59.28;100684.34;4940930;28;20513;-74
2023/04/11 00:36:46;;;;;;;5.03;1.50;;;;;;;14.73;59.12;100692.28;4940054;29;20424;-74
2023/04/11 00:39:12;;;;;;;5.60;1.38;;;;;;;14.77;58.95;100688.69;4941008;29;20051;-74
2023/04/11 00:41:37;;;;;;;5.90;1.40;;;;;;;14.82;58.83;100692.13;4946118;29;20039;-74
2023/04/11 00:44:03;;;;;;;6.43;1.80;;;;;;;14.82;59.14;100692.13;4938524;29;20023;-74
2023/04/11 00:46:29;;;;;;;6.30;1.47;;;;;;;14.74;59.25;100694.91;4939799;29;20491;-74
2023/04/11 00:48:55;;;;;;;5.47;1.52;;;;;;;14.70;59.48;100700.25;4950855;29;20020;-74
2023/04/11 00:51:21;;;;;;;9.70;1.57;;;;;;;14.62;59.94;100687.97;4939895;29;20091;-74
2023/04/11 00:53:47;;;;;;;7.22;1.70;;;;;;;14.57;59.96;100673.03;4939299;29;20015;-74
2023/04/11 00:56:12;;;;;;;7.38;1.75;;;;;;;14.52;59.98;100667.78;4939655;29;20027;-74
2023/04/11 00:58:39;;;;;;;5.77;1.50;;;;;;;14.51;60.00;100681.94;4939526;29;20035;-73
2023/04/11 01:01:08;;;;;;;6.13;1.50;;;;;;;14.47;60.13;100680.25;4939609;29;20038;-74
2023/04/11 01:03:44;;;;;;;6.07;1.52;;;;;;;14.42;60.74;100676.78;4939210;29;20504;-74
2023/04/11 01:06:12;;;;;;;4.20;1.53;;;;;;;14.41;60.45;100680.31;4954151;29;20024;-74
2023/04/11 01:08:39;;;;;;;6.35;1.80;;;;;;;14.40;60.78;100679.44;4953893;28;20041;-74
2023/04/11 01:11:07;;;;;;;7.20;1.90;;;;;;;14.39;60.60;100672.38;4957232;28;20399;-74
2023/04/11 01:13:35;;;;;;;8.63;1.73;;;;;;;14.41;60.44;100685.63;4958616;28;20070;-74
2023/04/11 01:16:01;;;;;;;8.20;1.65;;;;;;;14.44;60.41;100686.44;4958558;28;20035;-74
2023/04/11 01:18:32;;;;;;;7.10;2.10;;;;;;;14.44;60.73;100691.75;4958677;28;20023;-74
2023/04/11 01:20:59;;;;;;;5.38;1.50;;;;;;;14.44;60.61;100682.94;4945412;28;20023;-74
2023/04/11 01:23:26;;;;;;;6.80;1.83;;;;;;;14.41;60.79;100677.69;4937577;29;20095;-73
2023/04/11 01:25:51;;;;;;;7.60;2.05;;;;;;;14.38;60.79;100677.72;4938999;29;20028;-74
2023/04/11 01:28:20;;;;;;;6.47;1.70;;;;;;;14.39;60.98;100674.19;4945717;29;20053;-74
2023/04/11 01:30:46;;;;;;;6.00;1.70;;;;;;;14.38;61.05;100675.06;4958379;28;20258;-73
2023/04/11 01:33:14;;;;;;;6.85;2.05;;;;;;;14.35;61.18;100681.28;4958473;28;20030;-74
2023/04/11 01:35:40;;;;;;;10.75;1.70;;;;;;;14.31;61.35;100675.13;4955628;28;20513;-73
2023/04/11 01:38:05;;;;;;;7.63;1.90;;;;;;;14.34;61.25;100675.09;4939072;29;20049;-74
2023/04/11 01:40:32;;;;;;;5.88;1.70;;;;;;;14.39;61.11;100671.53;4938987;29;20084;-74
2023/04/11 01:42:58;;;;;;;10.30;2.00;;;;;;;14.40;61.08;100674.13;4939392;29;20551;-73
2023/04/11 01:45:25;;;;;;;7.03;1.87;;;;;;;14.43;61.15;100673.22;4938952;29;20070;-74
2023/04/11 01:47:51;;;;;;;6.70;1.90;;;;;;;14.40;61.25;100676.78;4947476;29;20042;-74
2023/04/11 01:50:16;;;;;;;8.35;1.80;;;;;;;14.40;61.10;100674.13;4943323;28;20032;-74
2023/04/11 01:52:42;;;;;;;6.87;2.03;;;;;;;14.42;61.02;100671.47;4939279;29;20547;-73
2023/04/11 01:55:07;;;;;;;10.20;2.03;;;;;;;14.44;61.47;100674.97;4938691;29;20060;-74
2023/04/11 01:57:33;;;;;;;9.35;1.65;;;;;;;14.44;61.06;100677.63;4939008;29;20055;-74
2023/04/11 01:59:59;;;;;;;6.40;1.63;;;;;;;14.45;61.06;100676.72;4938969;29;20061;-74
2023/04/11 02:02:25;;;;;;;7.05;1.60;;;;;;;14.46;61.39;100683.78;4939130;29;20102;-74
2023/04/11 02:04:50;;;;;;;4.23;1.40;;;;;;;14.43;61.47;100673.22;4941624;29;20110;-73
2023/04/11 02:07:15;;;;;;;7.33;1.67;;;;;;;14.41;61.55;100675.03;4958200;28;20110;-74
2023/04/11 02:09:41;;;;;;;6.07;1.60;;;;;;;14.42;61.49;100674.13;4953040;28;20023;-74
2023/04/11 02:12:06;;;;;;;4.77;1.70;;;;;;;14.41;61.91;100670.59;4957114;28;20038;-74
2023/04/11 02:14:43;;;;;;;8.57;1.60;;;;;;;14.41;62.38;100672.38;4958017;28;20086;-73
2023/04/11 02:17:09;;;;;;;4.72;1.58;;;;;;;14.41;61.53;100669.72;4958071;28;20487;-74
2023/04/11 02:19:44;;;;;;;6.45;1.50;;;;;;;14.43;61.81;100667.94;4957072;28;20110;-74
2023/04/11 02:22:10;;;;;;;7.70;1.92;;;;;;;14.44;61.57;100664.38;4939176;29;20035;-74
2023/04/11 02:24:36;;;;;;;6.50;1.43;;;;;;;14.47;61.47;100659.03;4938754;29;20034;-74
2023/04/11 02:27:02;;;;;;;5.55;1.58;;;;;;;14.50;61.29;100669.59;4939021;29;20594;-73
2023/04/11 02:29:27;;;;;;;5.50;1.60;;;;;;;14.52;61.11;100667.78;4944362;29;20034;-74
2023/04/11 02:31:53;;;;;;;7.50;1.40;;;;;;;14.53;61.30;100664.25;4956499;28;20050;-74
2023/04/11 02:34:19;;;;;;;5.28;1.40;;;;;;;14.52;61.34;100675.75;4940117;29;20023;-74
2023/04/11 02:36:44;;;;;;;8.83;1.40;;;;;;;14.50;61.28;100669.59;4940857;29;20039;-74
2023/04/11 02:39:11;;;;;;;8.00;1.58;;;;;;;14.49;61.35;100670.50;4941817;29;20059;-73
2023/04/11 02:41:41;;;;;;;8.57;1.53;;;;;;;14.45;62.06;100655.53;4942159;29;20031;-74
2023/04/11 02:44:08;;;;;;;5.65;1.50;;;;;;;14.41;61.56;100669.72;4942032;29;20030;-74
2023/04/11 02:46:33;;;;;;;4.88;1.33;;;;;;;14.39;61.72;100666.22;4940815;29;20027;-73
2023/04/11 02:48:59;;;;;;;7.03;1.57;;;;;;;14.40;62.10;100667.97;4953463;29;20038;-74
2023/04/11 02:51:24;;;;;;;5.30;1.63;;;;;;;14.38;62.21;100664.47;4942115;29;20035;-74
2023/04/11 02:53:51;;;;;;;6.53;1.38;;;;;;;14.39;62.05;100667.09;4941640;29;20016;-73
2023/04/11 02:56:18;;;;;;;5.13;1.52;;;;;;;14.40;62.21;100658.25;4940658;29;20040;-73
2023/04/11 02:58:44;;;;;;;8.43;1.70;;;;;;;14.40;61.91;100652.09;4941832;29;20051;-74
2023/04/11 03:01:10;;;;;;;5.93;1.40;;;;;;;14.41;61.85;100653.84;4940895;29;20024;-74
2023/04/11 03:03:37;;;;;;;6.47;1.45;;;;;;;14.41;62.25;100651.19;4941458;29;20039;-74
2023/04/11 03:06:05;;;;;;;6.07;1.35;;;;;;;14.41;62.26;100654.69;4955273;29;20031;-74
2023/04/11 03:08:31;;;;;;;5.32;1.40;;;;;;;14.37;62.48;100647.69;4956047;28;20035;-74
2023/04/11 03:10:56;;;;;;;4.77;1.20;;;;;;;14.34;62.59;100640.66;4960859;28;20023;-74
2023/04/11 03:13:22;;;;;;;6.80;1.57;;;;;;;14.32;63.06;100625.69;4960730;28;20074;-73
2023/04/11 03:15:47;;;;;;;5.23;1.20;;;;;;;14.27;63.11;100624.88;4959548;29;20074;-73
2023/04/11 03:18:12;;;;;;;5.35;1.17;;;;;;;14.26;63.16;100642.53;4960667;28;20059;-73
2023/04/11 03:20:38;;;;;;;5.00;1.10;;;;;;;14.30;62.87;100652.19;4954166;28;20038;-73
2023/04/11 03:23:03;;;;;;;5.70;1.30;;;;;;;14.31;62.97;100647.78;4942883;28;20028;-73
2023/04/11 03:25:29;;;;;;;4.50;1.20;;;;;;;14.32;62.89;100650.38;4941279;29;20034;-74
2023/04/11 03:27:54;;;;;;;4.40;1.23;;;;;;;14.33;63.10;100652.13;4942693;29;20074;-74
2023/04/11 03:30:20;;;;;;;5.10;1.20;;;;;;;14.34;63.14;100639.78;4959643;28;20027;-73
2023/04/11 03:32:45;;;;;;;5.53;1.33;;;;;;;14.34;63.02;100638.00;4959094;28;20027;-73
2023/04/11 03:35:10;;;;;;;5.17;1.10;;;;;;;14.37;63.19;100639.75;4960384;28;20023;-73
2023/04/11 03:37:36;;;;;;;5.93;1.20;;;;;;;14.38;63.11;100643.28;4960251;28;20368;-74
2023/04/11 03:40:02;;;;;;;4.77;1.33;;;;;;;14.35;63.36;100637.13;4960025;28;20279;-73
2023/04/11 03:42:28;;;;;;;6.68;1.38;;;;;;;14.32;63.99;100629.19;4958814;29;20042;-74
2023/04/11 03:44:53;;;;;;;4.60;1.10;;;;;;;14.31;63.83;100634.53;4960169;28;20031;-73
2023/04/11 03:47:18;;;;;;;4.60;1.23;;;;;;;14.31;64.06;100635.38;4959918;28;20030;-74
2023/04/11 03:49:44;;;;;;;4.43;1.10;;;;;;;14.32;63.88;100633.63;4949569;28;20074;-74
2023/04/11 03:52:10;;;;;;;4.60;1.20;;;;;;;14.33;63.91;100630.94;4939498;29;20051;-74
2023/04/11 03:54:36;;;;;;;6.00;1.35;;;;;;;14.30;64.51;100636.28;4940807;29;20052;-72
2023/04/11 03:57:01;;;;;;;6.03;1.20;;;;;;;14.29;64.23;100638.97;4940635;29;20399;-73
2023/04/11 03:59:28;;;;;;;4.23;1.40;;;;;;;14.30;64.38;100636.28;4939380;29;20078;-72
2023/04/11 04:01:53;;;;;;;5.60;1.40;;;;;;;14.28;64.42;100632.78;4940602;29;20035;-73
2023/04/11 04:04:19;;;;;;;4.33;1.30;;;;;;;14.26;64.33;100631.06;4940917;29;20082;-74
2023/04/11 04:06:44;;;;;;;3.80;1.23;;;;;;;14.26;64.59;100629.28;4959674;29;20110;-74
2023/04/11 04:09:10;;;;;;;4.82;1.35;;;;;;;14.24;64.85;100631.09;4954960;28;20023;-74
2023/04/11 04:11:35;;;;;;;6.30;1.40;;;;;;;14.23;64.41;100639.94;4959939;28;20090;-74
2023/04/11 04:14:01;;;;;;;3.83;1.10;;;;;;;14.20;64.46;100632.03;4960028;28;20490;-74
2023/04/11 04:16:26;;;;;;;5.82;1.45;;;;;;;14.20;64.31;100624.94;4959701;28;20034;-74
2023/04/11 04:18:51;;;;;;;4.43;1.40;;;;;;;14.19;64.55;100630.28;4949114;28;20031;-74
2023/04/11 04:21:17;;;;;;;4.17;1.17;;;;;;;14.21;64.15;100631.13;4954811;29;20026;-74
2023/04/11 04:23:52;;;;;;;4.10;0.93;;;;;;;14.25;64.17;100629.31;4959123;28;20062;-74
2023/04/11 04:26:23;;;;;;;4.90;1.25;;;;;;;14.26;64.28;100629.28;4941145;28;20034;-74
2023/04/11 04:28:49;;;;;;;6.88;1.30;;;;;;;14.23;64.35;100639.94;4952218;29;20031;-74
2023/04/11 04:31:21;;;;;;;5.30;1.37;;;;;;;14.15;64.78;100637.38;4958156;28;20058;-74
2023/04/11 04:33:48;;;;;;;6.45;1.65;;;;;;;14.10;64.83;100625.97;4959438;29;20562;-74
2023/04/11 04:36:16;;;;;;;5.28;1.42;;;;;;;14.09;64.81;100631.28;4959411;28;20031;-74
2023/04/11 04:38:42;;;;;;;4.80;1.40;;;;;;;14.12;64.79;100633.91;4958842;28;20049;-74
2023/04/11 04:41:14;;;;;;;5.03;1.70;;;;;;;14.13;64.70;100633.88;4959266;28;20031;-74
2023/04/11 04:43:40;;;;;;;6.07;1.50;;;;;;;14.14;64.69;100635.63;4959076;28;20035;-74
2023/04/11 04:46:06;;;;;;;5.72;1.42;;;;;;;14.16;64.68;100627.66;4959280;28;20484;-74
2023/04/11 04:48:32;;;;;;;5.50;1.40;;;;;;;14.16;64.92;100627.66;4957640;28;20045;-74
2023/04/11 04:50:57;;;;;;;5.03;1.53;;;;;;;14.15;64.77;100624.13;4939839;29;20042;-74
2023/04/11 04:53:22;;;;;;;7.17;1.60;;;;;;;14.17;64.95;100621.47;4939750;29;20055;-74
2023/04/11 04:55:48;;;;;;;7.33;1.23;;;;;;;14.13;64.97;100622.41;4940190;29;20027;-74
2023/04/11 04:58:13;;;;;;;8.23;1.70;;;;;;;14.11;64.98;100618.91;4950639;28;20026;-74
2023/04/11 05:00:39;;;;;;;4.83;1.50;;;;;;;14.09;65.02;100612.72;4950060;28;20031;-74
2023/04/11 05:03:07;;;;;;;6.60;1.60;;;;;;;14.05;64.96;100615.44;4948938;28;20051;-74
2023/04/11 05:05:32;;;;;;;8.37;1.90;;;;;;;14.06;65.12;100616.31;4950456;28;20079;-74
2023/04/11 05:07:58;;;;;;;5.20;1.40;;;;;;;14.03;65.16;100624.31;4945361;28;20035;-74
2023/04/11 05:10:24;;;;;;;7.03;1.63;;;;;;;14.03;65.23;100622.53;4952535;28;20027;-75
2023/04/11 05:15:27;;;;;;;7.93;2.07;;;;;;;14.02;65.47;100628.72;5319729;23;20674;-71
2023/04/11 05:17:52;;;;;;;8.13;1.70;;;;;;;13.99;65.63;100630.53;4975218;28;20034;-71
2023/04/11 05:20:18;;;;;;;9.33;1.90;;;;;;;13.97;65.47;100635.84;4971351;28;20350;-71
2023/04/11 05:22:43;;;;;;;8.93;1.90;;;;;;;13.94;65.50;100627.94;4974127;28;20444;-71
2023/04/11 05:25:10;;;;;;;11.40;2.47;;;;;;;13.96;65.66;100619.97;4974923;28;20050;-71
2023/04/11 05:27:36;;;;;;;7.35;1.70;;;;;;;13.95;65.77;100629.69;4976960;28;20041;-71
2023/04/11 05:30:01;;;;;;;7.60;1.43;;;;;;;13.96;65.32;100631.44;4970016;28;20498;-71
2023/04/11 05:32:26;;;;;;;7.57;1.40;;;;;;;13.98;65.77;100634.94;4977898;28;20026;-71
2023/04/11 05:34:54;;;;;;;4.33;1.37;;;;;;;14.04;65.35;100629.56;4977556;28;20034;-71
2023/04/11 05:37:19;;;;;;;9.25;1.67;;;;;;;14.04;65.50;100634.88;4972371;28;20058;-71
2023/04/11 05:39:45;;;;;;;10.10;1.83;;;;;;;14.00;65.84;100633.16;4960207;28;20039;-71
2023/04/11 05:42:10;;;;;;;7.73;1.33;;;;;;;13.98;65.90;100634.94;4962772;28;20058;-71
2023/04/11 05:44:36;;;;;;;5.00;1.50;;;;;;;13.97;66.07;100627.91;4968730;28;20038;-71
2023/04/11 05:47:01;;;;;;;5.57;1.60;;;;;;;13.96;66.06;100626.16;4977650;28;20031;-71
2023/04/11 05:49:27;;;;;;;6.88;1.50;;;;;;;13.95;66.21;100635.00;4977881;28;20487;-71
2023/04/11 05:51:52;;;;;;;5.70;1.50;;;;;;;13.93;66.31;100628.84;4977439;28;20383;-71
2023/04/11 05:54:33;;;;;;;7.03;1.83;;;;;;;13.94;66.47;100620.00;4977761;28;20035;-71
2023/04/11 05:56:58;;;;;;;8.43;1.48;;;;;;;13.98;65.90;100624.34;4977460;28;20121;-71
2023/04/11 05:59:24;;;;;;;8.17;1.50;;;;;;;14.03;65.90;100621.66;4976307;28;20070;-71
2023/04/11 06:01:50;;;;;;;13.73;1.87;;;;;;;14.04;65.92;100626.91;4977404;28;20274;-71
2023/04/11 06:04:15;;;;;;;7.95;1.58;;;;;;;14.07;66.04;100623.38;4977544;28;20027;-71
2023/04/11 06:06:42;;;;;;;6.83;1.47;;;;;;;14.09;66.03;100623.31;4969446;28;20035;-71
2023/04/11 06:09:08;;;;;;;5.78;1.50;;;;;;;14.12;65.88;100620.66;4963006;28;20038;-71
2023/04/11 06:11:34;;;;;;;7.67;1.70;;;;;;;14.17;65.36;100624.13;4972454;28;20038;-71
2023/04/11 06:13:59;;;;;;;8.02;1.63;;;;;;;14.21;65.44;100624.03;4961999;28;20027;-71
2023/04/11 06:16:25;;;;;;;6.33;1.43;;;;;;;14.24;65.54;100625.78;4966707;28;20057;-71
2023/04/11 06:18:50;;;;;;;5.50;1.60;;;;;;;14.27;65.31;100628.38;4966756;28;20035;-71
2023/04/11 06:21:16;;;;;;;5.93;1.53;;;;;;;14.30;65.30;100636.28;4967902;28;20082;-71
2023/04/11 06:23:41;;;;;;;7.73;1.50;;;;;;;14.33;65.33;100636.25;4972931;28;20117;-71
2023/04/11 06:26:06;;;;;;;5.97;1.30;;;;;;;14.37;65.09;100625.63;4980682;28;20663;-71
2023/04/11 06:28:32;;;;;;;10.53;1.47;;;;;;;14.40;65.11;100625.59;4979560;28;20031;-71
2023/04/11 06:30:57;;;;;;;7.07;1.63;;;;;;;14.41;65.31;100628.19;4979827;28;20034;-71
2023/04/11 06:33:22;;;;;;;5.77;1.30;;;;;;;14.43;64.94;100626.41;4980415;28;20073;-72
2023/04/11 06:35:48;;;;;;;6.17;1.50;;;;;;;14.50;64.67;100632.50;4981004;28;20030;-71
2023/04/11 06:38:13;;;;;;;5.30;1.50;;;;;;;14.57;64.79;100639.44;4980816;28;20266;-71
2023/04/11 06:40:39;;;;;;;7.90;1.20;;;;;;;14.62;64.59;100632.31;4980772;28;20529;-71
2023/04/11 06:43:04;;;;;;;5.50;1.37;;;;;;;14.70;64.51;100636.63;4979294;28;20426;-71
2023/04/11 06:45:30;;;;;;;6.20;1.63;;;;;;;14.75;64.38;100632.16;4980264;28;20046;-71
2023/04/11 06:47:55;;;;;;;5.73;1.50;;;;;;;14.81;63.93;100636.50;4980652;28;20030;-71
2023/04/11 06:50:21;;;;;;;4.80;1.40;;;;;;;14.89;63.92;100646.09;4979437;28;20069;-71
2023/04/11 06:52:46;;;;;;;5.40;1.30;;;;;;;14.95;64.15;100641.56;4979333;28;20069;-71
2023/04/11 06:55:14;;;;;;;6.20;1.60;;;;;;;14.95;64.04;100649.53;4980623;28;20113;-71
2023/04/11 06:57:40;;;;;;;5.70;1.60;;;;;;;14.97;63.97;100647.72;4980498;28;20263;-71
2023/04/11 07:00:06;;;;;;;4.88;1.52;;;;;;;14.98;63.86;100649.47;4980264;28;20085;-71
2023/04/11 07:02:34;;;;;;;6.70;1.55;;;;;;;14.98;63.79;100647.72;4977451;28;20050;-71
2023/04/11 07:05:00;;;;;;;7.70;1.83;;;;;;;14.97;63.71;100656.56;4961023;28;20035;-71
2023/04/11 07:07:26;;;;;;;6.23;1.33;;;;;;;14.98;63.93;100644.19;4962330;28;20523;-71
2023/04/11 07:09:52;;;;;;;4.50;1.33;;;;;;;14.99;63.86;100648.56;4965231;28;20027;-71
2023/04/11 07:12:17;;;;;;;5.25;1.65;;;;;;;15.01;63.89;100642.34;4960888;28;20399;-71
2023/04/11 07:14:43;;;;;;;6.70;1.60;;;;;;;15.03;63.87;100637.00;4960873;28;20027;-71
2023/04/11 07:17:08;;;;;;;7.20;1.53;;;;;;;15.03;64.33;100639.66;4968256;28;20584;-71
2023/04/11 07:19:34;;;;;;;5.25;1.40;;;;;;;15.03;64.09;100642.31;4961316;28;20094;-71
2023/04/11 07:21:59;;;;;;;5.90;1.50;;;;;;;15.02;64.26;100640.56;4978329;28;20038;-71
2023/04/11 07:24:25;;;;;;;6.07;1.40;;;;;;;15.01;64.22;100639.72;4980219;28;20055;-71
2023/04/11 07:26:52;;;;;;;4.43;1.25;;;;;;;15.01;64.22;100633.50;4979918;28;20368;-70
2023/04/11 07:29:17;;;;;;;8.02;1.50;;;;;;;15.02;64.26;100635.25;4976006;28;20033;-71
2023/04/11 07:31:43;;;;;;;8.57;1.60;;;;;;;15.00;64.50;100637.97;4979508;28;20478;-71
2023/04/11 07:34:09;;;;;;;7.53;1.60;;;;;;;15.00;64.42;100637.06;4979884;28;20034;-71
2023/04/11 07:36:35;;;;;;;7.30;1.50;;;;;;;15.01;64.29;100628.22;4979854;28;20118;-71
2023/04/11 07:39:00;;;;;;;8.03;1.70;;;;;;;15.03;64.54;100627.28;4979849;28;20031;-71
2023/04/11 07:41:26;;;;;;;7.33;1.40;;;;;;;15.02;64.69;100629.97;4979547;28;20030;-71
2023/04/11 07:43:51;;;;;;;5.78;1.30;;;;;;;15.06;64.41;100621.03;4979688;28;20102;-71
2023/04/11 07:46:17;;;;;;;5.13;1.67;;;;;;;15.11;64.25;100620.97;4979480;28;20122;-72
2023/04/11 07:48:42;;;;;;;4.83;1.63;;;;;;;15.14;64.10;100624.47;4979620;28;20105;-71
2023/04/11 07:51:08;;;;;;;4.93;1.40;;;;;;;15.18;63.93;100625.25;4979654;28;20031;-71
2023/04/11 07:53:33;;;;;;;5.72;1.40;;;;;;;15.21;63.88;100631.41;4979489;28;20114;-71
2023/04/11 07:55:59;;;;;;;5.60;1.50;;;;;;;15.25;63.71;100616.31;4977926;28;20042;-71
2023/04/11 07:58:24;;;;;;;5.85;1.55;;;;;;;15.28;64.13;100618.03;4979505;28;20106;-71
2023/04/11 08:00:51;;;;;;;7.47;2.10;;;;;;;15.26;64.16;100622.47;4960305;28;20113;-71
2023/04/11 08:03:17;;;;;;;7.32;1.60;;;;;;;15.27;64.01;100618.91;4961467;28;20031;-71
2023/04/11 08:05:42;;;;;;;6.70;1.83;;;;;;;15.29;64.06;100617.13;4959761;28;20535;-71
2023/04/11 08:08:08;;;;;;;4.87;1.70;;;;;;;15.33;63.76;100619.69;4961517;28;20109;-71
2023/04/11 08:10:33;;;;;;;5.47;1.67;;;;;;;15.42;63.58;100618.66;4962697;28;20051;-71
2023/04/11 08:12:59;;;;;;;5.68;1.80;;;;;;;15.50;63.54;100614.06;4961658;28;20154;-71
2023/04/11 08:15:25;;;;;;;5.43;2.00;;;;;;;15.57;63.31;100617.50;4959651;28;20134;-71
2023/04/11 08:17:54;;;;;;;8.50;2.25;;;;;;;15.61;63.20;100616.53;4963803;28;20038;-71
2023/04/11 08:20:21;;;;;;;6.65;1.60;;;;;;;15.63;63.19;100613.84;4965295;28;20037;-71
2023/04/11 08:22:46;;;;;;;9.65;1.92;;;;;;;15.64;63.24;100602.31;4977776;28;20039;-71
2023/04/11 08:25:13;;;;;;;6.73;1.53;;;;;;;15.70;63.38;100606.66;4978962;28;20037;-71
2023/04/11 08:27:39;;;;;;;7.00;1.50;;;;;;;15.72;62.94;100599.53;4977169;28;20023;-71
2023/04/11 08:30:09;;;;;;;4.97;1.70;;;;;;;15.73;63.38;100607.44;4985662;28;20037;-71
2023/04/11 08:32:34;;;;;;;5.43;1.50;;;;;;;15.71;63.28;100600.44;4976778;28;20390;-71
2023/04/11 08:35:00;;;;;;;6.17;1.83;;;;;;;15.69;63.17;100605.75;4978735;28;20034;-70
2023/04/11 08:37:26;;;;;;;9.10;1.70;;;;;;;15.72;63.24;100600.38;4978741;28;20793;-71
2023/04/11 08:39:52;;;;;;;7.15;2.03;;;;;;;15.77;63.12;100598.50;4977516;28;20031;-71
2023/04/11 08:42:28;;;;;;;6.67;1.63;;;;;;;15.81;63.12;100594.00;4978179;28;20049;-71
2023/04/11 08:44:59;;;;;;;5.95;1.40;;;;;;;15.92;62.89;100585.84;4977350;28;20057;-71
2023/04/11 08:47:25;;;;;;;6.95;1.40;;;;;;;16.06;62.49;100577.59;4977520;28;20406;-72
2023/04/11 08:49:52;;;;;;;5.93;2.03;;;;;;;16.21;62.10;100582.56;4977779;28;20113;-71
2023/04/11 08:52:18;;;;;;;6.93;1.80;;;;;;;16.41;61.89;100577.69;4976429;28;20674;-71
2023/04/11 08:54:45;;;;;;;6.15;1.70;;;;;;;16.61;61.36;100586.09;4975855;28;20049;-71
2023/04/11 08:57:20;;;;;;;6.65;1.40;;;;;;;16.76;60.84;100584.84;4958132;28;20042;-71
2023/04/11 08:59:50;;;;;;;7.05;1.30;;;;;;;16.88;60.45;100581.00;4957683;28;20035;-71
2023/04/11 09:02:15;;;;;;;5.93;1.27;;;;;;;16.91;60.28;100575.59;4956807;28;20031;-71
2023/04/11 09:04:42;;;;;;;7.80;1.47;;;;;;;16.96;60.22;100569.28;4958053;28;20451;-71
2023/04/11 09:07:08;;;;;;;7.00;1.77;;;;;;;17.03;60.12;100573.56;4958240;28;20031;-71
2023/04/11 09:09:35;;;;;;;5.60;1.90;;;;;;;17.13;59.84;100574.22;4963414;28;20513;-71
2023/04/11 09:12:02;;;;;;;5.78;1.42;;;;;;;17.16;59.60;100572.31;4956720;28;20057;-71
2023/04/11 09:14:27;;;;;;;7.20;1.70;;;;;;;17.17;59.55;100568.75;4957770;28;20432;-71
2023/04/11 09:16:56;;;;;;;6.90;1.53;;;;;;;17.33;59.27;100568.34;4966511;28;20153;-71
2023/04/11 09:19:28;;;;;;;7.60;1.80;;;;;;;17.55;58.96;100562.44;4961359;28;20031;-71
2023/04/11 09:21:55;;;;;;;5.32;1.13;;;;;;;17.70;58.49;100561.97;4977200;28;20027;-71
2023/04/11 09:24:21;;;;;;;5.57;1.27;;;;;;;17.86;58.14;100558.84;4975939;28;20031;-71
2023/04/11 09:26:47;;;;;;;5.85;1.20;;;;;;;17.99;57.83;100549.59;4977146;28;20402;-71
2023/04/11 09:29:34;;;;;;;7.57;1.30;;;;;;;18.19;57.42;100550.78;4976883;28;20402;-71
2023/04/11 09:32:00;;;;;;;8.77;1.45;;;;;;;18.35;56.38;100554.72;4977377;28;20186;-71
2023/04/11 09:34:28;;;;;;;7.63;1.43;;;;;;;18.40;56.09;100549.25;4977047;28;20109;-71
2023/04/11 09:36:54;;;;;;;7.03;1.30;;;;;;;18.46;55.94;100549.03;4977536;28;20138;-71
2023/04/11 09:39:20;;;;;;;7.20;1.30;;;;;;;18.72;55.58;100541.97;4977170;28;20495;-71
2023/04/11 09:41:46;;;;;;;7.80;1.40;;;;;;;19.16;54.94;100535.19;4977046;28;20073;-71
2023/04/11 09:44:11;;;;;;;6.40;1.25;;;;;;;19.57;54.23;100523.91;4978590;28;20030;-71
2023/04/11 09:46:55;;;;;;;7.83;1.20;;;;;;;19.94;52.69;100522.53;4980959;28;20129;-71
2023/04/11 09:49:22;;;;;;;7.50;1.30;;;;;;;20.10;52.93;100527.25;4981080;28;20113;-71
2023/04/11 09:51:48;;;;;;;7.65;1.17;;;;;;;19.99;52.91;100531.25;4974186;28;20392;-71
2023/04/11 09:54:14;;;;;;;6.60;1.20;;;;;;;19.84;52.93;100526.44;4963163;28;20050;-71
2023/04/11 09:56:41;;;;;;;7.68;1.40;;;;;;;19.69;52.69;100523.47;4962497;28;20031;-71
2023/04/11 09:59:07;;;;;;;5.78;1.40;;;;;;;19.71;52.70;100520.72;4962185;28;20558;-71
2023/04/11 10:01:32;;;;;;;5.60;1.13;;;;;;;19.74;52.64;100515.25;4962051;28;20031;-71
2023/04/11 10:03:59;;;;;;;8.48;1.30;;;;;;;19.78;51.59;100501.72;4961993;28;20110;-71
2023/04/11 10:06:49;;;;;;;6.32;1.20;;;;;;;19.66;51.20;100496.88;4964439;28;20077;-71
2023/04/11 10:09:15;;;;;;;7.23;1.17;;;;;;;19.68;52.12;100496.78;4966493;28;20078;-72
2023/04/11 10:11:42;;;;;;;7.10;1.63;;;;;;;19.65;51.81;100489.75;4960791;28;20027;-71
2023/04/11 10:14:08;;;;;;;7.97;1.25;;;;;;;19.68;52.03;100489.66;4962156;28;20035;-71
2023/04/11 10:16:33;;;;;;;8.60;1.40;;;;;;;19.72;51.64;100495.72;4967727;28;20101;-71
2023/04/11 10:19:03;;;;;;;5.43;1.10;;;;;;;19.86;50.13;100492.53;4964034;28;20491;-71
2023/04/11 10:21:31;;;;;;;6.80;1.20;;;;;;;19.93;50.63;100484.25;4977813;28;20402;-71
2023/04/11 10:24:06;;;;;;;4.35;0.80;;;;;;;20.09;50.03;100488.97;4979577;28;20405;-71
2023/04/11 10:26:48;;;;;;;7.43;1.17;;;;;;;20.18;49.27;100471.69;4981031;28;20394;-71
2023/04/11 10:32:23;;;;;;;5.87;1.00;;;;;;;20.48;48.36;100471.34;4981298;28;20026;-71
2023/04/11 10:34:49;;;;;;;7.03;1.10;;;;;;;20.73;48.47;100467.63;4972344;28;20038;-71
2023/04/11 10:37:29;;;;;;;6.33;1.20;;;;;;;21.00;47.86;100462.91;4981004;28;20030;-71
2023/04/11 10:40:00;;;;;;;6.85;1.00;;;;;;;21.28;47.89;100452.75;4980683;28;20557;-71
2023/04/11 10:42:31;;;;;;;8.88;1.20;;;;;;;21.59;47.05;100446.81;4980968;28;20042;-71
2023/04/11 10:45:16;;;;;;;5.70;1.00;;;;;;;21.72;46.79;100446.28;4980378;28;20058;-71
2023/04/11 10:48:04;;;;;;;6.60;1.05;;;;;;;22.02;46.26;100435.00;4976463;28;20395;-71
2023/04/11 10:50:29;;;;;;;6.73;0.80;;;;;;;22.26;45.13;100435.56;4951357;28;20070;-71
2023/04/11 10:53:02;;;;;;;6.22;1.08;;;;;;;22.30;44.88;100437.16;4961362;28;20023;-71
2023/04/11 10:55:31;;;;;;;4.23;0.87;;;;;;;22.25;44.67;100433.00;4960366;28;20034;-71
2023/04/11 10:58:18;;;;;;;5.40;0.95;;;;;;;22.00;44.30;100434.22;4961591;28;20023;-71
2023/04/11 11:00:50;;;;;;;6.05;1.30;;;;;;;21.75;44.38;100430.91;4959552;28;20041;-71
2023/04/11 11:03:23;;;;;;;5.65;1.25;;;;;;;21.63;44.53;100424.28;4963807;28;20031;-71
2023/04/11 11:06:02;;;;;;;7.07;2.10;;;;;;;21.53;44.45;100420.31;4960991;28;20027;-71
2023/04/11 11:08:29;;;;;;;6.47;0.90;;;;;;;21.60;44.84;100426.28;4965093;28;20070;-72
2023/04/11 11:11:05;;;;;;;4.43;0.80;;;;;;;21.59;44.76;100424.53;4960801;28;20065;-71
2023/04/11 11:13:42;;;;;;;5.63;1.00;;;;;;;21.58;44.36;100422.75;4960773;28;20035;-71
2023/04/11 11:16:12;;;;;;;8.10;0.90;;;;;;;21.54;44.39;100410.47;4963196;28;20340;-71
2023/04/11 11:18:37;;;;;;;5.93;1.08;;;;;;;21.56;44.34;100413.94;4962674;28;20103;-71
2023/04/11 11:21:03;;;;;;;4.00;0.83;;;;;;;21.76;43.94;100410.34;4973390;28;20027;-71
2023/04/11 11:23:28;;;;;;;7.07;0.90;;;;;;;21.96;43.57;100406.69;4980147;28;20027;-71
2023/04/11 11:25:55;;;;;;;5.47;1.20;;;;;;;22.05;42.41;100397.31;4979867;28;20027;-71
2023/04/11 11:28:21;;;;;;;6.20;1.10;;;;;;;22.21;42.51;100394.72;4975152;28;20023;-71